首页
METAR-TAF:

METAR-TAF

机场 :

达拉斯/沃思堡国际机场

達拉斯 / 沃思堡, 得克萨斯州, 美国

纬度: 32-53-49N, 经度: 097-01-19W, 海拔: 183米

当前天气观测

该预报发布于40分钟前的14:53 UTC
风速11节,风向,有时为19节阵风
温度 30°C
湿度 70%
气压 1015 hPa
能見度: 16.1公里
少量云层高于500英尺
少量云层高于2000英尺
散云层高于25000英尺

METAR: KDFW 111453Z 19011G19KT 10SM FEW005 FEW020 SCT250 30/24 A2997 RMK AO2 SLP139 FU FEW005 NW T03000239 50009

时间: 10:33 (15:33 UTC)

预报

该预报发布于33分钟前的15:00 UTC
预报有效从11日的 15点(UTC)到 12日的 18点(UTC)
风速14节,风向
能見度: 10公里
散云层高于25000英尺

TAF: KDFW 111500Z 1115/1218 19014KT P6SM SCT250

超过4000个机场的气象观测和天气预报(METAR&TAF报告)。

可查询的气象台以黄色和红色小点在地图上表示。

将鼠标移到小点上方,可查看气象台名称。

然后点击查看天气观测和预报。

如需切换地图:点击带黑十字的绿色按钮放大地图;点击带横线的绿色按钮缩小地图;或者点击绿色箭头查看邻近地区的地图。


METAR-TAF: